Etusivu
METAR-TAF:

METAR-TAF

Lentoasemat :

Carrollton, Georgia, Yhdysvallat

Leveyspiiri: 33-37-54N, Pituuspiiri: 085-09-08W, korkeus merenpinnasta: 354 m

Tämänhetkinen sää

Tämä raportti tehtiin 24 minuuttia sitten, kello 07.35 UTC
Tuuli 5 kn pohjoisen/luoteesta
Lämpötila 7°C
Kosteus 100%
Ilmanpaine 1022 hPa
Näkyvyys: 16.1 km
selkeää

METAR: KCTJ 170735Z AUTO 33005KT 10SM CLR 07/07 A3019 RMK AO2 T00710065

Aika: 02:59 (07:59 UTC)


TAF: puuttuu

Säähavainnot ja -ennusteet yli 4000 lentoasemalta (METAR- ja TAF-raportit).

Käytössä olevat sääasemat on merkitty karttaan keltaisilla ja punaisilla pisteillä.

Aseta hiiri pisteen päälle nähdäksesi sääaseman nimen.

Klikkaa sitten nähdäksesi säähavainnot ja -ennusteet.

Kartan vaihtaminen: klikkaa mustalla rastilla varustettuja vihreitä pisteitä, niin voit zoomata sisään; viivalla varustettua vihreää pistettä, niin voit zoomata ulos tai vihreitä nuolia, niin pääset viereisille kartoille.


METAR-TAF: